createdAt,value
2022-11-22T00:01:40.732Z,100.0
2022-11-22T00:06:40.654Z,100.0
2022-11-22T00:11:40.728Z,100.0
2022-11-22T00:16:40.773Z,100.0
2022-11-22T00:21:40.656Z,100.0
2022-11-22T00:26:40.664Z,100.0
2022-11-22T00:31:40.667Z,100.0
2022-11-22T00:36:40.670Z,100.0
2022-11-22T00:41:40.729Z,100.0
2022-11-22T00:46:40.938Z,100.0
2022-11-22T00:51:40.694Z,100.0
2022-11-22T00:56:40.680Z,100.0
2022-11-22T01:01:40.787Z,100.0
2022-11-22T01:06:40.687Z,100.0
2022-11-22T01:11:40.871Z,100.0
2022-11-22T01:16:40.803Z,100.0
2022-11-22T01:21:40.689Z,100.0
2022-11-22T01:26:40.705Z,100.0
2022-11-22T01:31:40.701Z,100.0
2022-11-22T01:36:40.710Z,100.0
2022-11-22T01:41:40.763Z,100.0
2022-11-22T01:46:40.768Z,100.0
2022-11-22T01:51:40.707Z,100.0
2022-11-22T01:56:40.729Z,100.0
2022-11-22T02:01:40.895Z,100.0
2022-11-22T02:06:40.719Z,100.0
2022-11-22T02:11:40.790Z,100.0
2022-11-22T02:16:40.840Z,100.0
2022-11-22T02:21:40.740Z,100.0
2022-11-22T02:26:40.731Z,100.0
2022-11-22T02:31:40.730Z,100.0
2022-11-22T02:36:40.741Z,100.0
2022-11-22T02:41:40.797Z,100.0
2022-11-22T02:46:41.010Z,100.0
2022-11-22T02:51:40.745Z,100.0
2022-11-22T02:56:40.763Z,100.0
2022-11-22T03:01:40.769Z,100.0
2022-11-22T03:06:40.752Z,100.0
2022-11-22T03:11:40.812Z,100.0
2022-11-22T03:16:40.825Z,100.0
2022-11-22T03:21:40.758Z,100.0
2022-11-22T03:26:40.762Z,100.0
2022-11-22T03:31:40.770Z,100.0
2022-11-22T03:36:40.774Z,100.0
2022-11-22T03:41:40.824Z,100.0
2022-11-22T03:46:41.022Z,100.0
2022-11-22T03:51:40.781Z,100.0
2022-11-22T03:56:40.782Z,100.0
2022-11-22T04:01:40.854Z,100.0
2022-11-22T04:06:40.781Z,100.0
2022-11-22T04:11:40.844Z,100.0
2022-11-22T04:16:40.906Z,100.0
2022-11-22T04:21:40.789Z,100.0
2022-11-22T04:26:40.798Z,100.0
2022-11-22T04:31:40.799Z,100.0
2022-11-22T04:36:40.806Z,100.0
2022-11-22T04:41:40.881Z,100.0
2022-11-22T04:46:41.080Z,100.0
2022-11-22T04:51:40.812Z,100.0
2022-11-22T04:56:40.817Z,100.0
2022-11-22T05:01:40.820Z,100.0
2022-11-22T05:06:40.829Z,100.0
2022-11-22T05:11:41.032Z,100.0
2022-11-22T05:16:40.882Z,100.0
2022-11-22T05:21:40.826Z,100.0
2022-11-22T05:26:40.828Z,100.0
2022-11-22T05:31:40.830Z,100.0
2022-11-22T05:36:40.841Z,100.0
2022-11-22T05:41:40.897Z,100.0
2022-11-22T05:46:41.113Z,100.0
2022-11-22T05:51:40.845Z,100.0
2022-11-22T05:56:40.842Z,100.0
2022-11-22T06:01:40.881Z,100.0
2022-11-22T06:06:40.852Z,100.0
2022-11-22T06:11:41.066Z,100.0
2022-11-22T06:16:40.857Z,100.0
2022-11-22T06:21:40.983Z,100.0
2022-11-22T06:26:40.864Z,100.0
2022-11-22T06:31:40.866Z,100.0
2022-11-22T06:36:40.862Z,100.0
2022-11-22T06:41:40.937Z,100.0
2022-11-22T06:46:40.871Z,100.0
2022-11-22T06:51:40.997Z,100.0
2022-11-22T06:56:40.883Z,100.0
2022-11-22T07:01:40.954Z,100.0
2022-11-22T07:06:40.892Z,100.0
2022-11-22T07:11:41.075Z,100.0
2022-11-22T07:16:40.896Z,100.0
2022-11-22T07:21:40.960Z,100.0
2022-11-22T07:26:40.899Z,100.0
2022-11-22T07:31:40.902Z,100.0
2022-11-22T07:36:40.897Z,100.0
2022-11-22T07:41:40.966Z,100.0
2022-11-22T07:46:40.911Z,100.0
2022-11-22T07:51:41.020Z,100.0
2022-11-22T07:56:40.912Z,100.0
2022-11-22T08:01:40.932Z,100.0
2022-11-22T08:06:40.914Z,100.0
2022-11-22T08:11:40.987Z,100.0
2022-11-22T08:16:40.922Z,100.0
2022-11-22T08:21:40.987Z,100.0
2022-11-22T08:26:40.933Z,100.0
2022-11-22T08:31:40.934Z,100.0
2022-11-22T08:36:40.931Z,100.0
2022-11-22T08:41:40.989Z,100.0
2022-11-22T08:46:40.946Z,100.0
2022-11-22T08:51:41.056Z,100.0
2022-11-22T08:56:40.951Z,100.0
2022-11-22T09:01:40.991Z,100.0
2022-11-22T09:11:41.009Z,100.0
2022-11-22T09:16:40.952Z,100.0
2022-11-22T09:21:41.028Z,100.0
2022-11-22T09:26:40.978Z,100.0
2022-11-22T09:31:40.965Z,100.0
2022-11-22T09:36:40.971Z,100.0
2022-11-22T09:41:41.033Z,99.8
2022-11-22T09:46:40.977Z,100.0
2022-11-22T09:51:41.044Z,100.0
2022-11-22T09:56:40.979Z,100.0
2022-11-22T10:01:41.100Z,99.4
2022-11-22T10:06:40.977Z,99.3
2022-11-22T10:11:41.051Z,99.1
2022-11-22T10:16:40.988Z,98.9
2022-11-22T10:21:41.059Z,99.1
2022-11-22T10:26:40.996Z,98.8
2022-11-22T10:31:40.998Z,98.2
2022-11-22T10:36:41.010Z,98.3
2022-11-22T10:41:41.058Z,98.6
2022-11-22T10:46:41.011Z,98.3
2022-11-22T10:51:41.162Z,98.2
2022-11-22T10:56:41.037Z,98.1
2022-11-22T11:01:41.146Z,97.9
2022-11-22T11:07:10.525Z,97.9
2022-11-22T11:11:41.084Z,97.8
2022-11-22T11:16:41.016Z,97.3
2022-11-22T11:21:41.028Z,97.4
2022-11-22T11:26:41.151Z,96.9
2022-11-22T11:31:41.031Z,96.5
2022-11-22T11:36:41.042Z,97.0
2022-11-22T11:41:43.511Z,96.3
2022-11-22T11:46:41.034Z,96.1
2022-11-22T11:51:41.047Z,95.5
2022-11-22T11:56:41.053Z,95.4
2022-11-22T12:01:41.183Z,95.0
2022-11-22T12:06:41.051Z,94.4
2022-11-22T12:11:41.119Z,94.2
2022-11-22T12:16:41.056Z,94.1
2022-11-22T12:21:41.059Z,94.1
2022-11-22T12:26:41.059Z,94.4
2022-11-22T12:31:41.059Z,94.6
2022-11-22T12:36:41.223Z,94.9
2022-11-22T12:41:41.078Z,95.2
2022-11-22T12:46:41.144Z,95.2
2022-11-22T12:51:41.084Z,94.8
2022-11-22T12:56:41.082Z,95.2
2022-11-22T13:01:41.205Z,94.4
2022-11-22T13:06:41.083Z,94.9
2022-11-22T13:11:41.224Z,94.5
2022-11-22T13:16:41.090Z,94.4
2022-11-22T13:21:41.157Z,94.0
2022-11-22T13:26:41.087Z,93.9
2022-11-22T13:31:41.276Z,93.5
2022-11-22T13:36:41.106Z,92.9
2022-11-22T13:41:41.387Z,93.0
2022-11-22T13:46:41.109Z,93.1
2022-11-22T13:51:41.182Z,93.1
2022-11-22T13:56:41.111Z,92.9
2022-11-22T14:01:41.167Z,93.4
2022-11-22T14:06:41.120Z,92.9
2022-11-22T14:11:41.268Z,92.7
2022-11-22T14:16:41.124Z,92.8
2022-11-22T14:21:41.190Z,93.1
2022-11-22T14:26:41.126Z,92.9
2022-11-22T14:31:41.141Z,92.6
2022-11-22T14:36:41.133Z,92.9
2022-11-22T14:41:41.255Z,93.2
2022-11-22T14:46:53.205Z,93.2
2022-11-22T14:51:41.200Z,92.9
2022-11-22T14:56:41.144Z,92.4
2022-11-22T15:01:41.250Z,93.2
2022-11-22T15:09:13.539Z,92.8
2022-11-22T15:11:41.226Z,92.4
2022-11-22T16:01:41.276Z,93.2
2022-11-22T16:06:41.187Z,93.2
2022-11-22T16:11:41.306Z,93.2
2022-11-22T16:16:41.190Z,93.3
2022-11-22T16:21:41.256Z,93.3
2022-11-22T16:26:41.191Z,92.9
2022-11-22T16:31:41.204Z,93.1
2022-11-22T16:36:41.201Z,93.4
2022-11-22T16:41:41.330Z,93.9
2022-11-22T16:46:41.207Z,94.3
2022-11-22T16:51:41.275Z,94.7
2022-11-22T16:56:41.211Z,95.1
2022-11-22T17:01:41.214Z,95.4
2022-11-22T17:06:41.223Z,95.8
2022-11-22T17:11:41.493Z,96.1
2022-11-22T17:16:41.217Z,96.3
2022-11-22T17:21:41.294Z,96.4
2022-11-22T17:26:41.237Z,96.5
2022-11-22T17:31:41.244Z,96.7
2022-11-22T17:36:41.240Z,96.8
2022-11-22T17:41:41.367Z,97.0
2022-11-22T17:46:41.245Z,97.6
2022-11-22T17:51:41.307Z,98.1
2022-11-22T17:56:41.240Z,98.4
2022-11-22T18:01:41.247Z,98.7
2022-11-22T18:06:41.251Z,98.9
2022-11-22T18:11:41.524Z,99.0
2022-11-22T18:16:41.257Z,99.2
2022-11-22T18:21:41.320Z,99.4
2022-11-22T18:26:41.848Z,99.7
2022-11-22T18:31:51.776Z,99.9
2022-11-22T18:36:54.780Z,100.0
2022-11-22T18:41:41.550Z,100.0
2022-11-22T18:46:41.283Z,100.0
2022-11-22T18:51:41.337Z,100.0
2022-11-22T18:56:41.288Z,100.0
2022-11-22T19:01:41.277Z,100.0
2022-11-22T19:06:41.281Z,100.0
2022-11-22T19:11:41.348Z,100.0
2022-11-22T19:16:41.287Z,100.0
2022-11-22T19:21:41.367Z,100.0
2022-11-22T19:26:41.299Z,100.0
2022-11-22T19:31:41.305Z,100.0
2022-11-22T19:36:41.306Z,100.0
2022-11-22T19:41:41.377Z,100.0
2022-11-22T19:46:41.317Z,100.0
2022-11-22T19:51:41.373Z,100.0
2022-11-22T19:56:41.308Z,100.0
2022-11-22T20:01:41.435Z,100.0
2022-11-22T20:06:43.160Z,100.0
2022-11-22T20:11:41.452Z,100.0
2022-11-22T20:16:41.409Z,100.0
2022-11-22T20:21:41.409Z,100.0
2022-11-22T20:26:41.333Z,100.0
2022-11-22T20:31:41.340Z,100.0
2022-11-22T20:36:41.336Z,100.0
2022-11-22T20:41:41.455Z,100.0
2022-11-22T20:46:41.340Z,100.0
2022-11-22T20:51:41.400Z,100.0
2022-11-22T20:56:41.349Z,100.0
2022-11-22T21:01:41.391Z,100.0
2022-11-22T21:06:41.361Z,100.0
2022-11-22T21:11:41.628Z,100.0
2022-11-22T21:16:41.956Z,100.0
2022-11-22T21:21:41.419Z,100.0
2022-11-22T21:26:41.366Z,100.0
2022-11-22T21:31:41.362Z,100.0
2022-11-22T21:36:41.368Z,100.0
2022-11-22T21:41:41.795Z,100.0
2022-11-22T21:46:41.379Z,100.0
2022-11-22T21:51:41.432Z,100.0
2022-11-22T21:56:41.382Z,100.0
2022-11-22T22:01:41.488Z,100.0
2022-11-22T22:06:45.835Z,100.0
2022-11-22T22:11:41.627Z,100.0
2022-11-22T22:16:41.387Z,100.0
2022-11-22T22:21:41.628Z,100.0
2022-11-22T22:26:41.395Z,100.0
2022-11-22T22:31:41.401Z,100.0
2022-11-22T22:36:41.411Z,100.0
2022-11-22T22:41:41.651Z,100.0
2022-11-22T22:46:41.407Z,100.0
2022-11-22T22:51:41.465Z,100.0
2022-11-22T22:56:41.415Z,100.0
2022-11-22T23:01:41.430Z,100.0
2022-11-22T23:06:41.420Z,100.0
2022-11-22T23:11:41.527Z,100.0
2022-11-22T23:16:41.429Z,100.0
2022-11-22T23:21:41.488Z,100.0
2022-11-22T23:26:41.437Z,100.0
2022-11-22T23:31:41.431Z,100.0
2022-11-22T23:36:41.510Z,100.0
2022-11-22T23:41:41.498Z,100.0
2022-11-22T23:46:41.441Z,100.0
2022-11-22T23:51:41.503Z,100.0
2022-11-22T23:56:41.455Z,100.0
